Airfield :
LOGIN :

Register | Disclaimer

   EN    FR    IT 

 










Legend :    VFR   Marginal VFR   IFR   Intensive IFR   Very Intensive IFR
Visi :
Ceiling :
>= 8 km
>= 3000ft
5 to 8 km
1000 to 3000 ft
1500m to 5 km
500 to 1000 ft
800 to 1500m
200 to 500 ft
< 800m
< 200 ft
Symbols :   Thunderstorms  Fog  Heavy snow  Heavy precipitations  Wind > 20 kt
SIGMETs :     Misc.  Thunderstorms  Icing  Turbulence  Mountain Waves  Volcanic Ashes







- Airport Elevation : 75 ft
- IATA code : MRH


EGYM - RAF Marham

CURRENT METAR :
  • 251750Z 18007KT CAVOK 12/05 Q1034 BLU NOSIG

EXPIRED METARs :
  • 251650Z 21011KT CAVOK 15/04 Q1034 BLU NOSIG
  • 251550Z 22013KT 9999 FEW040 16/05 Q1035 BLU NOSIG

TAF TAF EGYM
Valid from the 25 at 18:00 until the 26 at 00:00 UTC


251626Z 2518/2524 22012KT 9999 FEW040
No reported NOTAMs for that airfield.
1 SIGMET reported for the London FIR (EGTT) :
 
Severe mountain waves
EGTT SIGMET 01 VALID 251800/252200 EGRR
EGTT LONDON FIR SEV MTW FCST WI N5421 W00004 - N5311 W00204 - N5500 W00356 - N5500 W00100 - N5500 W00021 - N5421 W00004 FL030/200 STNR NC=



MET'MAP, your aeronautical weather chart ! - Copyright ORBIFLY December 2007 - Disclaimer

ORBIFLY MET'MAP TEAM :

Programming & Development : Alexandra Zaïnal
Concept & Development : Baudouin d'Aumeries
Co-Development & Prog : Marc-Olivier Méhu
Technical & hardware support : Manuel Goepfert

Contact : metmap@orbifly.com




SOURCES & CREDITS :

   NOAA